createdAt,value
2019-02-15T00:01:10.812Z,2.83
2019-02-15T00:03:37.129Z,2.84
2019-02-15T00:06:03.440Z,2.85
2019-02-15T00:08:29.743Z,2.90
2019-02-15T00:10:56.052Z,2.96
2019-02-15T00:13:22.366Z,2.94
2019-02-15T00:15:48.671Z,2.78
2019-02-15T00:18:14.985Z,2.78
2019-02-15T00:20:41.293Z,2.75
2019-02-15T00:23:07.606Z,2.75
2019-02-15T00:25:33.912Z,2.80
2019-02-15T00:28:00.220Z,2.84
2019-02-15T00:30:26.528Z,2.82
2019-02-15T00:32:52.833Z,2.80
2019-02-15T00:35:19.141Z,2.78
2019-02-15T00:37:45.444Z,2.78
2019-02-15T00:40:11.752Z,2.77
2019-02-15T00:42:38.069Z,2.73
2019-02-15T00:45:04.371Z,2.78
2019-02-15T00:47:30.676Z,2.75
2019-02-15T00:49:56.985Z,2.81
2019-02-15T00:52:23.294Z,2.82
2019-02-15T00:54:49.600Z,2.73
2019-02-15T00:57:15.912Z,2.78
2019-02-15T00:59:42.220Z,2.81
2019-02-15T01:02:08.538Z,2.80
2019-02-15T01:04:34.845Z,2.83
2019-02-15T01:07:01.154Z,2.85
2019-02-15T01:09:27.458Z,2.88
2019-02-15T01:11:53.769Z,2.87
2019-02-15T01:14:20.077Z,2.88
2019-02-15T01:16:46.396Z,2.88
2019-02-15T01:19:12.706Z,2.85
2019-02-15T01:21:39.015Z,2.86
2019-02-15T01:24:05.324Z,2.85
2019-02-15T01:26:31.633Z,2.81
2019-02-15T01:28:57.943Z,2.69
2019-02-15T01:31:24.263Z,2.66
2019-02-15T01:33:50.574Z,2.69
2019-02-15T01:36:16.880Z,2.67
2019-02-15T01:38:43.189Z,2.63
2019-02-15T01:41:09.501Z,2.57
2019-02-15T01:43:39.999Z,2.48
2019-02-15T01:46:02.117Z,2.36
2019-02-15T01:48:28.419Z,2.35
2019-02-15T01:50:54.801Z,2.28
2019-02-15T01:53:21.107Z,2.22
2019-02-15T01:55:47.415Z,2.24
2019-02-15T01:58:13.725Z,2.21
2019-02-15T02:00:40.033Z,2.25
2019-02-15T02:03:06.371Z,2.29
2019-02-15T02:05:32.672Z,2.35
2019-02-15T02:07:58.981Z,2.33
2019-02-15T02:10:25.287Z,2.36
2019-02-15T02:12:51.596Z,2.41
2019-02-15T02:15:17.902Z,2.41
2019-02-15T02:17:44.207Z,2.43
2019-02-15T02:20:10.520Z,2.37
2019-02-15T02:22:36.824Z,2.35
2019-02-15T02:25:03.141Z,2.42
2019-02-15T02:27:29.450Z,2.45
2019-02-15T02:29:55.758Z,2.52
2019-02-15T02:32:22.074Z,2.75
2019-02-15T02:34:48.392Z,3.05
2019-02-15T02:37:14.691Z,2.76
2019-02-15T02:39:40.998Z,2.58
2019-02-15T02:42:07.303Z,2.57
2019-02-15T02:44:33.613Z,2.59
2019-02-15T02:46:59.924Z,2.61
2019-02-15T02:49:26.243Z,2.67
2019-02-15T02:51:52.542Z,2.67
2019-02-15T02:54:18.848Z,2.76
2019-02-15T02:56:45.158Z,2.77
2019-02-15T02:59:11.472Z,2.71
2019-02-15T03:01:37.777Z,2.67
2019-02-15T03:04:04.083Z,2.59
2019-02-15T03:06:30.399Z,2.54
2019-02-15T03:08:56.703Z,2.48
2019-02-15T03:11:23.010Z,2.52
2019-02-15T03:13:49.317Z,2.52
2019-02-15T03:16:15.635Z,2.45
2019-02-15T03:18:41.933Z,2.39
2019-02-15T03:21:08.240Z,2.46
2019-02-15T03:23:34.550Z,2.53
2019-02-15T03:26:00.863Z,2.41
2019-02-15T03:28:27.162Z,2.64
2019-02-15T03:30:53.470Z,2.58
2019-02-15T03:33:19.785Z,2.52
2019-02-15T03:35:46.094Z,2.44
2019-02-15T03:38:12.402Z,2.48
2019-02-15T03:40:38.709Z,2.56
2019-02-15T03:43:05.018Z,2.57
2019-02-15T03:45:31.325Z,2.60
2019-02-15T03:47:57.647Z,2.59
2019-02-15T03:50:23.957Z,2.43
2019-02-15T03:52:50.260Z,2.26
2019-02-15T03:55:16.604Z,2.22
2019-02-15T03:57:42.878Z,2.26
2019-02-15T04:00:09.184Z,2.32
2019-02-15T04:02:35.487Z,2.37
2019-02-15T04:05:01.803Z,2.42
2019-02-15T04:07:28.106Z,2.34
2019-02-15T04:09:54.424Z,2.33
2019-02-15T04:12:20.727Z,2.33
2019-02-15T04:14:47.041Z,2.33
2019-02-15T04:17:13.349Z,2.35
2019-02-15T04:19:39.666Z,2.52
2019-02-15T04:22:05.967Z,2.50
2019-02-15T04:24:32.274Z,2.52
2019-02-15T04:26:58.584Z,2.45
2019-02-15T04:29:24.891Z,2.33
2019-02-15T04:31:51.199Z,2.32
2019-02-15T04:34:17.541Z,2.32
2019-02-15T04:36:43.872Z,2.47
2019-02-15T04:39:10.190Z,2.44
2019-02-15T04:41:36.475Z,2.45
2019-02-15T04:44:02.786Z,2.41
2019-02-15T04:46:29.094Z,2.30
2019-02-15T04:48:55.411Z,2.30
2019-02-15T04:51:21.711Z,2.20
2019-02-15T04:53:48.027Z,2.12
2019-02-15T04:56:14.357Z,2.21
2019-02-15T04:58:40.692Z,2.28
2019-02-15T05:01:06.984Z,2.32
2019-02-15T05:03:33.297Z,2.36
2019-02-15T05:05:59.616Z,2.38
2019-02-15T05:08:25.923Z,2.29
2019-02-15T05:10:52.232Z,2.18
2019-02-15T05:13:18.543Z,2.13
2019-02-15T05:15:44.860Z,2.01
2019-02-15T05:18:11.155Z,1.99
2019-02-15T05:20:37.469Z,1.91
2019-02-15T05:23:03.783Z,1.85
2019-02-15T05:25:30.099Z,1.93
2019-02-15T05:27:56.399Z,2.10
2019-02-15T05:30:22.704Z,2.17
2019-02-15T05:32:49.015Z,2.17
2019-02-15T05:35:15.321Z,2.26
2019-02-15T05:37:41.653Z,2.26
2019-02-15T05:40:07.962Z,2.22
2019-02-15T05:42:34.274Z,2.22
2019-02-15T05:45:03.899Z,2.19
2019-02-15T05:47:26.913Z,2.12
2019-02-15T05:49:53.222Z,2.13
2019-02-15T05:52:19.525Z,2.11
2019-02-15T05:54:45.842Z,2.14
2019-02-15T05:57:12.143Z,2.23
2019-02-15T05:59:38.455Z,2.24
2019-02-15T06:02:04.761Z,2.25
2019-02-15T06:04:31.106Z,2.24
2019-02-15T06:06:57.427Z,2.26
2019-02-15T06:09:23.739Z,2.30
2019-02-15T06:11:50.044Z,2.28
2019-02-15T06:14:16.347Z,2.29
2019-02-15T06:16:42.688Z,2.31
2019-02-15T06:19:09.002Z,2.22
2019-02-15T06:21:35.387Z,2.32
2019-02-15T06:24:01.685Z,2.45
2019-02-15T06:26:28.004Z,2.56
2019-02-15T06:28:54.312Z,2.67
2019-02-15T06:31:20.623Z,2.88
2019-02-15T06:33:47.021Z,2.97
2019-02-15T06:36:13.333Z,2.96
2019-02-15T06:38:39.652Z,2.81
2019-02-15T06:41:05.961Z,2.86
2019-02-15T06:43:32.263Z,2.72
2019-02-15T06:45:58.576Z,2.72
2019-02-15T06:48:24.889Z,2.66
2019-02-15T06:50:51.193Z,2.68
2019-02-15T06:53:17.500Z,2.72
2019-02-15T06:55:43.811Z,2.76
2019-02-15T06:58:10.113Z,2.84
2019-02-15T07:00:36.423Z,2.78
2019-02-15T07:03:02.733Z,2.80
2019-02-15T07:05:29.049Z,2.88
2019-02-15T07:07:55.352Z,2.86
2019-02-15T07:10:21.672Z,2.99
2019-02-15T07:12:47.970Z,3.00
2019-02-15T07:15:14.281Z,2.91
2019-02-15T07:17:40.593Z,2.87
2019-02-15T07:20:06.903Z,3.12
2019-02-15T07:22:33.212Z,3.18
2019-02-15T07:24:59.539Z,3.67
2019-02-15T07:27:25.853Z,4.27
2019-02-15T07:29:52.161Z,4.88
2019-02-15T07:32:18.612Z,4.64
2019-02-15T07:34:44.924Z,4.47
2019-02-15T07:37:11.254Z,4.16
2019-02-15T07:39:37.554Z,3.81
2019-02-15T07:42:03.866Z,3.64
2019-02-15T07:44:30.174Z,3.59
2019-02-15T07:46:56.479Z,3.51
2019-02-15T07:49:26.787Z,3.61
2019-02-15T07:51:49.102Z,3.66
2019-02-15T07:54:15.412Z,3.83
2019-02-15T07:56:41.722Z,3.90
2019-02-15T07:59:08.157Z,3.95
2019-02-15T08:01:34.454Z,3.90
2019-02-15T08:04:00.780Z,3.65
2019-02-15T08:06:27.091Z,3.57
2019-02-15T08:08:53.391Z,3.64
2019-02-15T08:11:19.706Z,3.61
2019-02-15T08:13:46.012Z,3.70
2019-02-15T08:16:12.321Z,3.74
2019-02-15T08:18:38.629Z,3.79
2019-02-15T08:21:04.940Z,3.81
2019-02-15T08:23:31.261Z,3.73
2019-02-15T08:25:57.572Z,3.79
2019-02-15T08:28:23.873Z,3.78
2019-02-15T08:30:50.179Z,3.70
2019-02-15T08:33:16.483Z,3.74
2019-02-15T08:35:42.790Z,3.72
2019-02-15T08:38:09.106Z,3.71
2019-02-15T08:40:37.332Z,3.74
2019-02-15T08:43:01.721Z,3.87
2019-02-15T08:45:28.048Z,3.99
2019-02-15T08:47:54.356Z,4.00
2019-02-15T08:50:20.664Z,4.12
2019-02-15T08:52:46.972Z,4.16
2019-02-15T08:55:13.280Z,4.16
2019-02-15T08:57:39.636Z,4.17
2019-02-15T09:00:05.944Z,4.21
2019-02-15T09:02:32.249Z,4.29
2019-02-15T09:04:58.559Z,4.41
2019-02-15T09:07:24.904Z,4.41
2019-02-15T09:09:51.213Z,4.44
2019-02-15T09:12:17.518Z,4.44
2019-02-15T09:14:43.849Z,4.22
2019-02-15T09:17:10.151Z,4.23
2019-02-15T09:19:36.460Z,4.07
2019-02-15T09:22:02.768Z,4.00
2019-02-15T09:24:29.080Z,3.93
2019-02-15T09:26:55.375Z,3.88
2019-02-15T09:29:21.685Z,3.64
2019-02-15T09:31:48.031Z,3.53
2019-02-15T09:34:14.308Z,3.62
2019-02-15T09:36:40.641Z,3.62
2019-02-15T09:39:06.955Z,3.63
2019-02-15T09:41:33.274Z,3.76
2019-02-15T09:43:59.569Z,3.72
2019-02-15T09:46:25.877Z,3.80
2019-02-15T09:48:52.189Z,3.63
2019-02-15T09:51:18.495Z,3.67
2019-02-15T09:53:44.802Z,3.84
2019-02-15T09:56:11.108Z,3.82
2019-02-15T09:58:37.422Z,3.98
2019-02-15T10:01:03.726Z,4.17
2019-02-15T10:03:30.030Z,4.06
2019-02-15T10:05:56.341Z,3.98
2019-02-15T10:08:22.656Z,3.90
2019-02-15T10:10:48.956Z,3.90
2019-02-15T10:13:15.269Z,3.90
2019-02-15T10:15:41.573Z,3.86
2019-02-15T10:18:07.887Z,3.91
2019-02-15T10:20:34.191Z,3.86
2019-02-15T10:23:00.520Z,3.85
2019-02-15T10:25:26.812Z,3.91
2019-02-15T10:27:53.211Z,3.99
2019-02-15T10:30:19.516Z,3.90
2019-02-15T10:32:45.829Z,3.88
2019-02-15T10:35:12.149Z,3.86
2019-02-15T10:37:38.455Z,3.85
2019-02-15T10:40:04.771Z,3.64
2019-02-15T10:42:31.077Z,3.68
2019-02-15T10:44:57.393Z,3.55
2019-02-15T10:47:25.305Z,3.55
2019-02-15T10:49:50.000Z,3.63
2019-02-15T10:52:16.312Z,3.65
2019-02-15T10:54:42.619Z,3.65
2019-02-15T10:57:08.920Z,3.61
2019-02-15T10:59:35.234Z,3.81
2019-02-15T11:02:01.557Z,3.77
2019-02-15T11:04:27.868Z,3.70
2019-02-15T11:06:54.168Z,3.83
2019-02-15T11:09:20.486Z,3.61
2019-02-15T11:11:46.794Z,3.59
2019-02-15T11:14:13.111Z,3.62
2019-02-15T11:16:47.026Z,3.80
2019-02-15T11:19:05.722Z,3.75
2019-02-15T11:21:32.030Z,3.71
2019-02-15T11:23:58.338Z,3.68
2019-02-15T11:26:25.073Z,3.82
2019-02-15T11:28:50.952Z,3.95
2019-02-15T11:31:17.259Z,3.83
2019-02-15T11:33:43.564Z,3.85
2019-02-15T11:36:09.876Z,3.86
2019-02-15T11:38:36.182Z,3.77
2019-02-15T11:41:10.715Z,3.62
2019-02-15T11:43:28.785Z,3.71
2019-02-15T11:45:55.098Z,3.72
2019-02-15T11:48:21.404Z,3.67
2019-02-15T11:50:47.716Z,3.78
2019-02-15T11:53:14.021Z,3.89
2019-02-15T11:55:40.328Z,3.94
2019-02-15T11:58:06.665Z,3.79
2019-02-15T12:00:32.977Z,3.59
2019-02-15T12:02:59.289Z,3.60
2019-02-15T12:05:25.633Z,3.56
2019-02-15T12:07:51.944Z,3.55
2019-02-15T12:10:18.257Z,3.56
2019-02-15T12:12:44.569Z,3.79
2019-02-15T12:15:10.877Z,3.81
2019-02-15T12:17:37.188Z,3.76
2019-02-15T12:20:03.496Z,3.64
2019-02-15T12:22:29.800Z,3.68
2019-02-15T12:24:56.125Z,3.81
2019-02-15T12:27:22.430Z,3.87
2019-02-15T12:29:48.737Z,3.76
2019-02-15T12:32:15.045Z,3.75
2019-02-15T12:34:41.356Z,3.76
2019-02-15T12:37:07.660Z,3.85
2019-02-15T12:39:33.973Z,3.61
2019-02-15T12:42:00.281Z,3.66
2019-02-15T12:44:27.824Z,3.67
2019-02-15T12:46:52.902Z,3.76
2019-02-15T12:49:19.220Z,3.77
2019-02-15T12:51:45.617Z,3.85
2019-02-15T12:54:11.926Z,3.89
2019-02-15T12:56:38.236Z,3.94
2019-02-15T12:59:04.537Z,3.93
2019-02-15T13:01:30.852Z,3.88
2019-02-15T13:03:57.162Z,3.97
2019-02-15T13:06:28.670Z,3.97
2019-02-15T13:08:49.781Z,4.08
2019-02-15T13:11:16.089Z,4.13
2019-02-15T13:13:42.397Z,4.14
2019-02-15T13:16:08.711Z,3.99
2019-02-15T13:18:35.018Z,3.90
2019-02-15T13:21:01.331Z,3.91
2019-02-15T13:23:27.644Z,3.75
2019-02-15T13:25:53.991Z,3.69
2019-02-15T13:28:20.258Z,3.72
2019-02-15T13:30:46.564Z,3.75
2019-02-15T13:33:12.874Z,3.69
2019-02-15T13:35:39.184Z,3.62
2019-02-15T13:38:05.511Z,3.58
2019-02-15T13:40:31.830Z,3.52
2019-02-15T13:42:58.142Z,3.43
2019-02-15T13:45:24.437Z,3.29
2019-02-15T13:47:50.756Z,3.22
2019-02-15T13:50:19.013Z,3.28
2019-02-15T13:52:43.405Z,3.37
2019-02-15T13:55:09.736Z,3.43
2019-02-15T13:57:36.032Z,3.43
2019-02-15T14:00:02.336Z,3.14
2019-02-15T14:02:28.659Z,3.14
2019-02-15T14:04:54.969Z,3.11
2019-02-15T14:07:21.288Z,3.02
2019-02-15T14:09:47.595Z,3.00
2019-02-15T14:12:13.913Z,3.14
2019-02-15T14:14:40.215Z,3.20
2019-02-15T14:17:06.541Z,3.29
2019-02-15T14:19:32.847Z,3.24
2019-02-15T14:21:59.161Z,3.27
2019-02-15T14:24:25.470Z,3.32
2019-02-15T14:26:51.782Z,3.24
2019-02-15T14:29:18.097Z,3.09
2019-02-15T14:31:44.416Z,3.07
2019-02-15T14:34:10.728Z,3.07
2019-02-15T14:36:37.040Z,3.01
2019-02-15T14:39:03.354Z,2.93
2019-02-15T14:41:29.656Z,2.83
2019-02-15T14:43:55.976Z,2.89
2019-02-15T14:46:22.286Z,3.00
2019-02-15T14:48:48.592Z,3.05
2019-02-15T14:51:14.897Z,3.06
2019-02-15T14:53:41.213Z,3.05
2019-02-15T14:56:07.518Z,3.15
2019-02-15T14:58:33.839Z,3.20
2019-02-15T15:01:00.142Z,3.25
2019-02-15T15:03:26.448Z,3.22
2019-02-15T15:05:54.847Z,3.18
2019-02-15T15:08:19.059Z,3.08
2019-02-15T15:10:45.387Z,2.99
2019-02-15T15:13:11.710Z,2.96
2019-02-15T15:15:38.017Z,2.89
2019-02-15T15:18:12.666Z,2.93
2019-02-15T15:20:30.627Z,2.93
2019-02-15T15:22:56.941Z,2.91
2019-02-15T15:25:23.257Z,2.92
2019-02-15T15:27:49.562Z,2.93
2019-02-15T15:30:15.873Z,2.93
2019-02-15T15:32:42.177Z,2.95
2019-02-15T15:35:08.509Z,2.83
2019-02-15T15:37:34.812Z,2.78
2019-02-15T15:40:01.120Z,2.73
2019-02-15T15:42:27.455Z,2.69
2019-02-15T15:44:53.743Z,2.66
2019-02-15T15:47:20.053Z,2.62
2019-02-15T15:49:46.361Z,2.51
2019-02-15T15:52:12.668Z,2.46
2019-02-15T15:54:38.981Z,2.43
2019-02-15T15:57:05.283Z,2.48
2019-02-15T15:59:31.591Z,2.49
2019-02-15T16:01:57.898Z,2.41
2019-02-15T16:04:24.216Z,2.34
2019-02-15T16:06:50.557Z,2.37
2019-02-15T16:09:16.866Z,2.46
2019-02-15T16:11:43.175Z,2.48
2019-02-15T16:14:09.540Z,2.50
2019-02-15T16:16:35.796Z,2.49
2019-02-15T16:19:02.105Z,2.54
2019-02-15T16:21:28.417Z,2.58
2019-02-15T16:23:54.741Z,2.53
2019-02-15T16:26:21.048Z,2.49
2019-02-15T16:28:47.355Z,2.46
2019-02-15T16:31:13.659Z,2.36
2019-02-15T16:33:39.968Z,2.38
2019-02-15T16:36:06.277Z,2.44
2019-02-15T16:38:32.654Z,2.41
2019-02-15T16:40:58.907Z,2.42
2019-02-15T16:43:25.223Z,2.48
2019-02-15T16:45:51.528Z,2.55
2019-02-15T16:48:17.840Z,2.53
2019-02-15T16:50:44.145Z,2.46
2019-02-15T16:53:10.455Z,2.47
2019-02-15T16:55:36.759Z,2.52
2019-02-15T16:58:03.069Z,2.55
2019-02-15T17:00:29.380Z,2.56
2019-02-15T17:02:55.683Z,2.49
2019-02-15T17:05:21.997Z,2.48
2019-02-15T17:07:48.324Z,2.44
2019-02-15T17:10:14.629Z,2.43
2019-02-15T17:12:40.938Z,2.46
2019-02-15T17:15:07.251Z,2.48
2019-02-15T17:17:33.557Z,2.52
2019-02-15T17:19:59.866Z,2.52
2019-02-15T17:22:26.182Z,2.46
2019-02-15T17:24:52.496Z,2.47
2019-02-15T17:27:18.802Z,2.49
2019-02-15T17:29:45.132Z,2.62
2019-02-15T17:32:11.438Z,2.58
2019-02-15T17:34:37.755Z,2.65
2019-02-15T17:37:04.082Z,2.71
2019-02-15T17:39:30.413Z,2.66
2019-02-15T17:41:56.724Z,2.63
2019-02-15T17:44:23.028Z,2.65
2019-02-15T17:46:49.337Z,2.65
2019-02-15T17:49:15.645Z,2.59
2019-02-15T17:51:41.979Z,2.56
2019-02-15T17:54:08.263Z,2.61
2019-02-15T17:56:34.568Z,2.51
2019-02-15T17:59:00.876Z,2.54
2019-02-15T18:01:27.193Z,2.57
2019-02-15T18:03:53.525Z,2.60
2019-02-15T18:06:19.857Z,2.61
2019-02-15T18:08:46.164Z,2.54
2019-02-15T18:11:12.472Z,2.53
2019-02-15T18:13:38.777Z,2.51
2019-02-15T18:16:05.091Z,2.51
2019-02-15T18:18:31.402Z,2.57
2019-02-15T18:20:57.726Z,2.60
2019-02-15T18:23:24.049Z,2.63
2019-02-15T18:25:50.361Z,2.73
2019-02-15T18:28:16.671Z,2.77
2019-02-15T18:30:42.981Z,2.76
2019-02-15T18:33:09.292Z,2.73
2019-02-15T18:35:35.602Z,2.69
2019-02-15T18:38:01.905Z,2.67
2019-02-15T18:40:28.209Z,2.60
2019-02-15T18:42:54.568Z,2.51
2019-02-15T18:45:20.905Z,2.48
2019-02-15T18:47:47.212Z,2.53
2019-02-15T18:50:13.526Z,2.59
2019-02-15T18:52:39.836Z,2.58
2019-02-15T18:55:06.149Z,2.60
2019-02-15T18:57:32.500Z,2.75
2019-02-15T18:59:58.756Z,2.80
2019-02-15T19:02:25.179Z,2.71
2019-02-15T19:04:51.554Z,2.64
2019-02-15T19:07:17.867Z,2.64
2019-02-15T19:09:44.169Z,2.67
2019-02-15T19:12:10.471Z,2.70
2019-02-15T19:14:36.779Z,2.72
2019-02-15T19:17:03.089Z,2.68
2019-02-15T19:19:29.543Z,2.67
2019-02-15T19:21:55.831Z,2.66
2019-02-15T19:24:22.148Z,2.67
2019-02-15T19:26:48.446Z,2.63
2019-02-15T19:29:14.752Z,2.66
2019-02-15T19:31:42.554Z,2.73
2019-02-15T19:34:07.372Z,2.68
2019-02-15T19:36:33.681Z,2.67
2019-02-15T19:39:00.070Z,2.60
2019-02-15T19:41:26.441Z,2.55
2019-02-15T19:43:52.754Z,2.52
2019-02-15T19:46:19.062Z,2.62
2019-02-15T19:48:45.384Z,2.66
2019-02-15T19:51:11.705Z,2.69
2019-02-15T19:53:38.064Z,2.70
2019-02-15T19:56:04.581Z,3.01
2019-02-15T19:58:30.887Z,3.50
2019-02-15T20:00:57.195Z,3.76
2019-02-15T20:03:23.558Z,3.74
2019-02-15T20:05:49.864Z,3.72
2019-02-15T20:08:16.206Z,3.37
2019-02-15T20:10:42.521Z,3.30
2019-02-15T20:13:08.839Z,4.40
2019-02-15T20:15:35.169Z,4.54
2019-02-15T20:18:01.481Z,4.60
2019-02-15T20:20:27.840Z,4.51
2019-02-15T20:22:54.166Z,4.43
2019-02-15T20:25:20.472Z,4.15
2019-02-15T20:27:46.779Z,3.98
2019-02-15T20:30:13.084Z,3.80
2019-02-15T20:32:39.392Z,3.96
2019-02-15T20:35:05.732Z,4.10
2019-02-15T20:37:32.056Z,4.10
2019-02-15T20:39:58.368Z,4.06
2019-02-15T20:42:24.671Z,3.96
2019-02-15T20:44:50.978Z,4.14
2019-02-15T20:47:17.286Z,4.08
2019-02-15T20:49:43.606Z,3.75
2019-02-15T20:52:09.911Z,3.58
2019-02-15T20:54:36.222Z,3.66
2019-02-15T20:57:02.528Z,3.72
2019-02-15T20:59:28.858Z,3.64
2019-02-15T21:01:55.168Z,3.43
2019-02-15T21:04:21.483Z,3.90
2019-02-15T21:06:47.812Z,3.84
2019-02-15T21:09:15.487Z,3.52
2019-02-15T21:11:40.505Z,3.18
2019-02-15T21:14:06.808Z,3.04
2019-02-15T21:16:33.118Z,2.99
2019-02-15T21:18:59.423Z,3.11
2019-02-15T21:21:25.727Z,3.04
2019-02-15T21:23:52.041Z,2.83
2019-02-15T21:26:18.354Z,2.64
2019-02-15T21:28:44.652Z,2.54
2019-02-15T21:31:10.973Z,2.46
2019-02-15T21:33:37.295Z,2.35
2019-02-15T21:36:03.630Z,2.33
2019-02-15T21:38:30.106Z,2.39
2019-02-15T21:40:56.463Z,2.41
2019-02-15T21:43:25.524Z,2.34
2019-02-15T21:45:51.815Z,2.33
2019-02-15T21:48:22.030Z,2.28
2019-02-15T21:50:49.632Z,2.17
2019-02-15T21:53:18.550Z,2.13
2019-02-15T21:55:42.932Z,2.14
2019-02-15T21:58:11.204Z,2.14
2019-02-15T22:00:37.101Z,2.13
2019-02-15T22:03:02.279Z,2.06
2019-02-15T22:05:28.623Z,2.08
2019-02-15T22:07:55.017Z,2.03
2019-02-15T22:10:24.767Z,2.01
2019-02-15T22:12:50.120Z,2.01
2019-02-15T22:15:16.421Z,1.99
2019-02-15T22:17:42.740Z,2.02
2019-02-15T22:20:09.047Z,1.96
2019-02-15T22:22:35.351Z,1.99
2019-02-15T22:25:01.660Z,1.94
2019-02-15T22:27:27.968Z,1.85
2019-02-15T22:29:54.302Z,1.79
2019-02-15T22:32:20.603Z,1.78
2019-02-15T22:34:46.908Z,1.84
2019-02-15T22:37:13.232Z,1.82
2019-02-15T22:39:39.535Z,1.88
2019-02-15T22:42:05.857Z,2.03
2019-02-15T22:44:32.168Z,2.11
2019-02-15T22:46:58.500Z,2.12
2019-02-15T22:49:24.808Z,2.09
2019-02-15T22:51:51.112Z,2.06
2019-02-15T22:54:17.419Z,2.03
2019-02-15T22:56:43.725Z,1.97
2019-02-15T22:59:10.026Z,1.99
2019-02-15T23:01:36.333Z,2.08
2019-02-15T23:04:02.661Z,2.09
2019-02-15T23:06:28.966Z,2.13
2019-02-15T23:08:55.273Z,2.09
2019-02-15T23:11:21.601Z,2.07
2019-02-15T23:13:48.104Z,2.11
2019-02-15T23:16:14.220Z,2.11
2019-02-15T23:18:40.524Z,2.17
2019-02-15T23:21:06.902Z,2.18
2019-02-15T23:23:33.190Z,2.14
2019-02-15T23:25:59.558Z,2.11
2019-02-15T23:28:25.802Z,2.09
2019-02-15T23:30:52.108Z,2.11
2019-02-15T23:33:18.418Z,2.13
2019-02-15T23:35:44.728Z,2.10
2019-02-15T23:38:11.033Z,2.11
2019-02-15T23:40:37.339Z,2.02
2019-02-15T23:43:03.648Z,2.00
2019-02-15T23:45:29.947Z,2.07
2019-02-15T23:47:56.251Z,2.05
2019-02-15T23:50:22.551Z,2.12
2019-02-15T23:52:48.870Z,2.12
2019-02-15T23:55:15.164Z,2.17
2019-02-15T23:57:41.472Z,2.22
